sensor_id;sensor_type;location;lat;lon;timestamp;P1;durP1;ratioP1;P2;durP2;ratioP2
16063;SDS011;8136;53.172;8.256;2023-09-07T08:43:17;5.33;;;4.50;;
16063;SDS011;8136;53.172;8.256;2023-09-07T08:45:48;5.43;;;4.60;;
16063;SDS011;8136;53.172;8.256;2023-09-07T08:48:20;4.50;;;4.10;;
16063;SDS011;8136;53.172;8.256;2023-09-07T08:50:49;4.83;;;4.30;;
16063;SDS011;8136;53.172;8.256;2023-09-07T08:53:20;6.20;;;5.03;;
16063;SDS011;8136;53.172;8.256;2023-09-07T09:06:04;6.67;;;4.27;;
16063;SDS011;8136;53.172;8.256;2023-09-07T09:08:42;5.57;;;4.30;;
16063;SDS011;8136;53.172;8.256;2023-09-07T09:11:14;5.77;;;4.00;;
16063;SDS011;8136;53.172;8.256;2023-09-07T09:13:42;5.87;;;3.90;;
16063;SDS011;8136;53.172;8.256;2023-09-07T09:16:11;5.57;;;4.43;;
16063;SDS011;8136;53.172;8.256;2023-09-07T09:18:47;7.43;;;4.37;;
16063;SDS011;8136;53.172;8.256;2023-09-07T09:21:19;6.70;;;3.70;;
16063;SDS011;8136;53.172;8.256;2023-09-07T09:23:50;6.67;;;3.97;;
16063;SDS011;8136;53.172;8.256;2023-09-07T09:26:18;7.23;;;3.80;;
16063;SDS011;8136;53.172;8.256;2023-09-07T09:28:49;6.10;;;3.87;;
16063;SDS011;8136;53.172;8.256;2023-09-07T09:31:18;5.80;;;3.40;;
16063;SDS011;8136;53.172;8.256;2023-09-07T09:33:48;5.33;;;4.00;;
16063;SDS011;8136;53.172;8.256;2023-09-07T09:36:16;5.87;;;3.60;;
16063;SDS011;8136;53.172;8.256;2023-09-07T09:38:47;3.73;;;3.33;;
16063;SDS011;8136;53.172;8.256;2023-09-07T09:41:19;4.50;;;3.50;;
16063;SDS011;8136;53.172;8.256;2023-09-07T09:43:47;7.50;;;3.87;;
16063;SDS011;8136;53.172;8.256;2023-09-07T09:46:16;5.27;;;3.33;;
16063;SDS011;8136;53.172;8.256;2023-09-07T09:48:44;5.30;;;3.53;;
16063;SDS011;8136;53.172;8.256;2023-09-07T09:51:14;4.97;;;3.50;;
16063;SDS011;8136;53.172;8.256;2023-09-07T09:53:43;4.30;;;3.53;;
16063;SDS011;8136;53.172;8.256;2023-09-07T09:56:11;8.17;;;3.87;;
16063;SDS011;8136;53.172;8.256;2023-09-07T09:58:39;5.63;;;3.30;;
16063;SDS011;8136;53.172;8.256;2023-09-07T10:01:09;4.27;;;3.83;;
16063;SDS011;8136;53.172;8.256;2023-09-07T10:03:42;6.17;;;3.40;;
16063;SDS011;8136;53.172;8.256;2023-09-07T10:06:17;3.63;;;3.20;;
16063;SDS011;8136;53.172;8.256;2023-09-07T10:08:57;3.97;;;3.57;;
16063;SDS011;8136;53.172;8.256;2023-09-07T10:11:29;6.50;;;3.77;;
16063;SDS011;8136;53.172;8.256;2023-09-07T10:13:57;5.33;;;3.63;;
16063;SDS011;8136;53.172;8.256;2023-09-07T10:16:28;4.77;;;3.70;;
16063;SDS011;8136;53.172;8.256;2023-09-07T10:18:55;4.30;;;3.13;;
16063;SDS011;8136;53.172;8.256;2023-09-07T10:21:28;8.17;;;3.50;;
16063;SDS011;8136;53.172;8.256;2023-09-07T10:24:11;4.37;;;3.77;;
16063;SDS011;8136;53.172;8.256;2023-09-07T10:26:38;5.47;;;3.43;;
16063;SDS011;8136;53.172;8.256;2023-09-07T10:29:05;4.17;;;3.67;;
16063;SDS011;8136;53.172;8.256;2023-09-07T10:31:32;6.70;;;3.77;;
16063;SDS011;8136;53.172;8.256;2023-09-07T10:34:12;4.57;;;3.70;;
16063;SDS011;8136;53.172;8.256;2023-09-07T10:36:39;4.23;;;3.10;;
16063;SDS011;8136;53.172;8.256;2023-09-07T10:39:12;5.10;;;3.60;;
16063;SDS011;8136;53.172;8.256;2023-09-07T10:41:44;3.60;;;3.30;;
16063;SDS011;8136;53.172;8.256;2023-09-07T10:44:11;4.00;;;3.27;;
16063;SDS011;8136;53.172;8.256;2023-09-07T10:46:39;3.23;;;2.90;;
16063;SDS011;8136;53.172;8.256;2023-09-07T10:49:07;5.10;;;2.77;;
16063;SDS011;8136;53.172;8.256;2023-09-07T10:51:40;4.83;;;3.10;;
16063;SDS011;8136;53.172;8.256;2023-09-07T10:54:17;4.93;;;2.90;;
16063;SDS011;8136;53.172;8.256;2023-09-07T10:56:49;4.60;;;3.53;;
16063;SDS011;8136;53.172;8.256;2023-09-07T10:59:17;4.53;;;3.03;;
16063;SDS011;8136;53.172;8.256;2023-09-07T11:01:46;4.27;;;3.33;;
16063;SDS011;8136;53.172;8.256;2023-09-07T11:04:13;9.03;;;3.27;;
16063;SDS011;8136;53.172;8.256;2023-09-07T11:06:45;8.47;;;3.40;;
16063;SDS011;8136;53.172;8.256;2023-09-07T11:09:22;5.13;;;3.10;;
16063;SDS011;8136;53.172;8.256;2023-09-07T11:11:49;4.93;;;3.30;;
16063;SDS011;8136;53.172;8.256;2023-09-07T11:14:16;3.87;;;3.20;;
16063;SDS011;8136;53.172;8.256;2023-09-07T11:16:55;5.13;;;3.30;;
16063;SDS011;8136;53.172;8.256;2023-09-07T11:19:37;5.10;;;3.30;;
16063;SDS011;8136;53.172;8.256;2023-09-07T11:22:09;4.43;;;3.07;;
16063;SDS011;8136;53.172;8.256;2023-09-07T11:24:39;6.20;;;3.37;;
16063;SDS011;8136;53.172;8.256;2023-09-07T11:27:08;4.33;;;3.13;;
16063;SDS011;8136;53.172;8.256;2023-09-07T11:29:37;4.03;;;3.63;;
16063;SDS011;8136;53.172;8.256;2023-09-07T11:32:10;3.67;;;3.23;;
16063;SDS011;8136;53.172;8.256;2023-09-07T11:34:46;4.47;;;3.13;;
16063;SDS011;8136;53.172;8.256;2023-09-07T11:37:14;3.90;;;3.50;;
16063;SDS011;8136;53.172;8.256;2023-09-07T11:39:43;4.03;;;3.07;;
16063;SDS011;8136;53.172;8.256;2023-09-07T11:42:10;5.00;;;3.30;;
16063;SDS011;8136;53.172;8.256;2023-09-07T11:44:37;3.57;;;2.83;;
16063;SDS011;8136;53.172;8.256;2023-09-07T11:47:04;2.93;;;2.73;;
16063;SDS011;8136;53.172;8.256;2023-09-07T11:49:31;6.30;;;3.03;;
16063;SDS011;8136;53.172;8.256;2023-09-07T11:51:59;4.43;;;3.20;;
16063;SDS011;8136;53.172;8.256;2023-09-07T11:54:26;4.27;;;2.90;;
16063;SDS011;8136;53.172;8.256;2023-09-07T11:56:56;3.93;;;3.00;;
16063;SDS011;8136;53.172;8.256;2023-09-07T11:59:23;3.70;;;3.10;;
16063;SDS011;8136;53.172;8.256;2023-09-07T12:01:53;3.53;;;2.67;;
16063;SDS011;8136;53.172;8.256;2023-09-07T12:04:26;5.47;;;3.13;;
16063;SDS011;8136;53.172;8.256;2023-09-07T12:06:56;3.30;;;2.80;;
16063;SDS011;8136;53.172;8.256;2023-09-07T12:09:25;2.93;;;2.40;;
16063;SDS011;8136;53.172;8.256;2023-09-07T12:15:13;3.70;;;2.90;;
16063;SDS011;8136;53.172;8.256;2023-09-07T12:17:41;3.50;;;2.60;;
16063;SDS011;8136;53.172;8.256;2023-09-07T12:20:14;4.03;;;2.73;;
16063;SDS011;8136;53.172;8.256;2023-09-07T12:22:41;3.20;;;2.43;;
16063;SDS011;8136;53.172;8.256;2023-09-07T12:25:09;4.47;;;2.83;;
16063;SDS011;8136;53.172;8.256;2023-09-07T12:27:37;3.53;;;2.47;;
16063;SDS011;8136;53.172;8.256;2023-09-07T12:30:07;2.47;;;2.27;;
16063;SDS011;8136;53.172;8.256;2023-09-07T12:32:39;3.87;;;2.40;;
16063;SDS011;8136;53.172;8.256;2023-09-07T12:35:06;2.23;;;2.07;;
16063;SDS011;8136;53.172;8.256;2023-09-07T12:37:35;3.83;;;2.63;;
16063;SDS011;8136;53.172;8.256;2023-09-07T12:40:05;2.87;;;2.50;;
16063;SDS011;8136;53.172;8.256;2023-09-07T12:42:36;4.00;;;2.40;;
16063;SDS011;8136;53.172;8.256;2023-09-07T12:47:46;3.47;;;2.45;;
16063;SDS011;8136;53.172;8.256;2023-09-07T12:50:14;2.80;;;2.30;;
16063;SDS011;8136;53.172;8.256;2023-09-07T12:52:45;2.78;;;2.25;;
16063;SDS011;8136;53.172;8.256;2023-09-07T12:55:14;3.60;;;2.55;;
16063;SDS011;8136;53.172;8.256;2023-09-07T12:57:42;3.70;;;2.20;;
16063;SDS011;8136;53.172;8.256;2023-09-07T13:00:12;2.72;;;1.88;;
16063;SDS011;8136;53.172;8.256;2023-09-07T13:02:41;3.10;;;2.28;;
16063;SDS011;8136;53.172;8.256;2023-09-07T13:05:19;3.78;;;2.15;;
16063;SDS011;8136;53.172;8.256;2023-09-07T13:10:47;6.13;;;2.60;;
16063;SDS011;8136;53.172;8.256;2023-09-07T13:13:14;2.85;;;2.30;;
16063;SDS011;8136;53.172;8.256;2023-09-07T13:15:42;3.45;;;2.28;;
16063;SDS011;8136;53.172;8.256;2023-09-07T13:18:13;2.33;;;2.13;;
16063;SDS011;8136;53.172;8.256;2023-09-07T13:20:42;3.80;;;2.22;;
16063;SDS011;8136;53.172;8.256;2023-09-07T13:23:10;3.30;;;2.30;;
16063;SDS011;8136;53.172;8.256;2023-09-07T13:25:38;3.45;;;2.00;;
16063;SDS011;8136;53.172;8.256;2023-09-07T13:34:33;2.80;;;1.88;;
16063;SDS011;8136;53.172;8.256;2023-09-07T13:37:01;4.03;;;2.15;;
16063;SDS011;8136;53.172;8.256;2023-09-07T13:39:32;3.35;;;2.38;;
16063;SDS011;8136;53.172;8.256;2023-09-07T13:42:01;2.58;;;1.80;;
16063;SDS011;8136;53.172;8.256;2023-09-07T13:44:28;2.40;;;1.80;;
16063;SDS011;8136;53.172;8.256;2023-09-07T13:46:55;4.65;;;2.03;;
16063;SDS011;8136;53.172;8.256;2023-09-07T13:49:22;3.05;;;2.28;;
16063;SDS011;8136;53.172;8.256;2023-09-07T13:51:50;2.58;;;1.92;;
16063;SDS011;8136;53.172;8.256;2023-09-07T13:54:23;2.92;;;1.83;;
16063;SDS011;8136;53.172;8.256;2023-09-07T13:56:50;6.43;;;2.15;;
16063;SDS011;8136;53.172;8.256;2023-09-07T13:59:17;2.55;;;2.10;;
16063;SDS011;8136;53.172;8.256;2023-09-07T14:01:44;2.40;;;2.17;;
16063;SDS011;8136;53.172;8.256;2023-09-07T14:04:11;3.17;;;2.13;;
16063;SDS011;8136;53.172;8.256;2023-09-07T14:06:40;5.78;;;1.80;;
16063;SDS011;8136;53.172;8.256;2023-09-07T14:26:00;2.45;;;2.05;;
16063;SDS011;8136;53.172;8.256;2023-09-07T14:28:35;2.67;;;2.28;;
16063;SDS011;8136;53.172;8.256;2023-09-07T15:07:50;5.38;;;2.20;;
16063;SDS011;8136;53.172;8.256;2023-09-07T15:10:17;2.53;;;2.25;;
16063;SDS011;8136;53.172;8.256;2023-09-07T15:12:46;2.53;;;2.00;;
16063;SDS011;8136;53.172;8.256;2023-09-07T15:15:13;2.47;;;2.10;;
16063;SDS011;8136;53.172;8.256;2023-09-07T15:17:45;3.80;;;2.03;;
16063;SDS011;8136;53.172;8.256;2023-09-07T15:20:13;2.17;;;1.95;;
16063;SDS011;8136;53.172;8.256;2023-09-07T15:22:45;2.85;;;2.20;;
16063;SDS011;8136;53.172;8.256;2023-09-07T15:25:12;1.95;;;1.75;;
16063;SDS011;8136;53.172;8.256;2023-09-07T15:27:43;2.45;;;1.90;;
16063;SDS011;8136;53.172;8.256;2023-09-07T15:30:12;2.47;;;2.13;;
16063;SDS011;8136;53.172;8.256;2023-09-07T15:32:42;3.83;;;2.40;;
16063;SDS011;8136;53.172;8.256;2023-09-07T15:35:09;4.20;;;2.30;;
16063;SDS011;8136;53.172;8.256;2023-09-07T15:37:37;2.13;;;1.90;;
16063;SDS011;8136;53.172;8.256;2023-09-07T15:40:18;3.75;;;2.10;;
16063;SDS011;8136;53.172;8.256;2023-09-07T15:42:48;4.53;;;2.13;;
16063;SDS011;8136;53.172;8.256;2023-09-07T15:45:15;2.65;;;2.15;;
16063;SDS011;8136;53.172;8.256;2023-09-07T15:47:44;2.60;;;2.00;;
16063;SDS011;8136;53.172;8.256;2023-09-07T15:50:16;4.22;;;2.25;;
16063;SDS011;8136;53.172;8.256;2023-09-07T15:52:49;3.33;;;2.25;;
16063;SDS011;8136;53.172;8.256;2023-09-07T15:55:18;5.03;;;2.33;;
16063;SDS011;8136;53.172;8.256;2023-09-07T15:57:45;3.10;;;2.40;;
16063;SDS011;8136;53.172;8.256;2023-09-07T16:00:14;3.08;;;1.98;;
16063;SDS011;8136;53.172;8.256;2023-09-07T16:02:43;4.32;;;2.50;;
16063;SDS011;8136;53.172;8.256;2023-09-07T16:05:10;3.80;;;2.40;;
16063;SDS011;8136;53.172;8.256;2023-09-07T16:07:37;2.88;;;2.10;;
16063;SDS011;8136;53.172;8.256;2023-09-07T16:10:05;6.47;;;2.10;;
16063;SDS011;8136;53.172;8.256;2023-09-07T16:12:34;2.97;;;1.95;;
16063;SDS011;8136;53.172;8.256;2023-09-07T16:15:02;2.45;;;1.77;;
16063;SDS011;8136;53.172;8.256;2023-09-07T16:17:29;4.47;;;2.22;;
16063;SDS011;8136;53.172;8.256;2023-09-07T16:19:58;2.78;;;2.33;;
16063;SDS011;8136;53.172;8.256;2023-09-07T16:22:26;2.15;;;1.95;;
16063;SDS011;8136;53.172;8.256;2023-09-07T16:24:53;3.35;;;1.90;;
16063;SDS011;8136;53.172;8.256;2023-09-07T16:27:20;3.10;;;2.50;;
16063;SDS011;8136;53.172;8.256;2023-09-07T16:30:00;2.75;;;2.53;;
16063;SDS011;8136;53.172;8.256;2023-09-07T16:32:27;3.22;;;2.67;;
16063;SDS011;8136;53.172;8.256;2023-09-07T16:34:58;2.75;;;2.55;;
16063;SDS011;8136;53.172;8.256;2023-09-07T16:37:28;3.05;;;2.50;;
16063;SDS011;8136;53.172;8.256;2023-09-07T16:39:55;2.78;;;2.58;;
16063;SDS011;8136;53.172;8.256;2023-09-07T16:42:23;5.10;;;2.97;;
16063;SDS011;8136;53.172;8.256;2023-09-07T16:44:51;3.45;;;2.78;;
16063;SDS011;8136;53.172;8.256;2023-09-07T16:47:23;3.40;;;3.10;;
16063;SDS011;8136;53.172;8.256;2023-09-07T16:49:50;2.67;;;2.42;;
16063;SDS011;8136;53.172;8.256;2023-09-07T16:52:20;3.08;;;2.78;;
16063;SDS011;8136;53.172;8.256;2023-09-07T16:54:47;3.92;;;3.00;;
16063;SDS011;8136;53.172;8.256;2023-09-07T16:57:14;3.95;;;2.83;;
16063;SDS011;8136;53.172;8.256;2023-09-07T16:59:41;3.97;;;2.53;;
16063;SDS011;8136;53.172;8.256;2023-09-07T17:02:09;6.20;;;3.10;;
16063;SDS011;8136;53.172;8.256;2023-09-07T17:04:37;4.47;;;3.08;;
16063;SDS011;8136;53.172;8.256;2023-09-07T17:07:05;3.88;;;3.38;;
16063;SDS011;8136;53.172;8.256;2023-09-07T17:09:33;3.15;;;2.58;;
16063;SDS011;8136;53.172;8.256;2023-09-07T17:12:02;3.67;;;2.90;;
16063;SDS011;8136;53.172;8.256;2023-09-07T17:14:30;3.63;;;2.83;;
16063;SDS011;8136;53.172;8.256;2023-09-07T17:16:58;3.20;;;2.87;;
16063;SDS011;8136;53.172;8.256;2023-09-07T17:19:27;4.93;;;3.20;;
16063;SDS011;8136;53.172;8.256;2023-09-07T17:21:57;3.50;;;3.20;;
16063;SDS011;8136;53.172;8.256;2023-09-07T17:24:26;3.47;;;2.90;;
16063;SDS011;8136;53.172;8.256;2023-09-07T17:26:54;3.53;;;3.10;;
16063;SDS011;8136;53.172;8.256;2023-09-07T17:29:30;4.10;;;3.10;;
16063;SDS011;8136;53.172;8.256;2023-09-07T17:31:58;5.13;;;3.30;;
16063;SDS011;8136;53.172;8.256;2023-09-07T17:34:26;4.07;;;3.40;;
16063;SDS011;8136;53.172;8.256;2023-09-07T17:36:52;5.07;;;3.57;;
16063;SDS011;8136;53.172;8.256;2023-09-07T17:39:21;3.70;;;3.30;;
16063;SDS011;8136;53.172;8.256;2023-09-07T17:41:49;4.33;;;3.67;;
16063;SDS011;8136;53.172;8.256;2023-09-07T17:44:19;3.93;;;3.07;;
16063;SDS011;8136;53.172;8.256;2023-09-07T17:46:46;7.27;;;3.37;;
16063;SDS011;8136;53.172;8.256;2023-09-07T17:49:13;4.20;;;3.40;;
16063;SDS011;8136;53.172;8.256;2023-09-07T17:51:42;5.07;;;3.40;;
16063;SDS011;8136;53.172;8.256;2023-09-07T17:54:09;4.90;;;3.50;;
16063;SDS011;8136;53.172;8.256;2023-09-07T17:56:38;4.67;;;3.10;;
16063;SDS011;8136;53.172;8.256;2023-09-07T17:59:09;4.60;;;3.73;;
16063;SDS011;8136;53.172;8.256;2023-09-07T18:01:38;5.10;;;3.43;;
16063;SDS011;8136;53.172;8.256;2023-09-07T18:04:07;7.03;;;3.90;;
16063;SDS011;8136;53.172;8.256;2023-09-07T18:06:34;4.40;;;3.57;;
16063;SDS011;8136;53.172;8.256;2023-09-07T18:09:04;6.37;;;3.40;;
16063;SDS011;8136;53.172;8.256;2023-09-07T18:11:46;4.97;;;3.40;;
16063;SDS011;8136;53.172;8.256;2023-09-07T18:14:15;4.43;;;3.67;;
16063;SDS011;8136;53.172;8.256;2023-09-07T18:16:44;4.60;;;4.00;;
16063;SDS011;8136;53.172;8.256;2023-09-07T18:19:19;5.00;;;3.67;;
16063;SDS011;8136;53.172;8.256;2023-09-07T18:21:47;4.83;;;3.70;;
16063;SDS011;8136;53.172;8.256;2023-09-07T18:24:14;4.90;;;3.37;;
16063;SDS011;8136;53.172;8.256;2023-09-07T18:26:41;5.50;;;3.83;;
16063;SDS011;8136;53.172;8.256;2023-09-07T18:29:13;3.63;;;3.20;;
16063;SDS011;8136;53.172;8.256;2023-09-07T18:31:42;6.30;;;3.67;;
16063;SDS011;8136;53.172;8.256;2023-09-07T18:34:11;4.10;;;3.70;;
16063;SDS011;8136;53.172;8.256;2023-09-07T18:37:01;5.67;;;3.77;;
16063;SDS011;8136;53.172;8.256;2023-09-07T18:39:50;5.50;;;3.70;;
16063;SDS011;8136;53.172;8.256;2023-09-07T18:42:17;5.40;;;4.00;;
16063;SDS011;8136;53.172;8.256;2023-09-07T18:44:46;5.90;;;4.10;;
16063;SDS011;8136;53.172;8.256;2023-09-07T18:47:16;5.17;;;3.63;;
16063;SDS011;8136;53.172;8.256;2023-09-07T18:49:46;3.87;;;3.43;;
16063;SDS011;8136;53.172;8.256;2023-09-07T18:52:14;4.77;;;4.10;;
16063;SDS011;8136;53.172;8.256;2023-09-07T18:54:44;6.93;;;3.63;;
16063;SDS011;8136;53.172;8.256;2023-09-07T18:57:13;5.17;;;3.70;;
16063;SDS011;8136;53.172;8.256;2023-09-07T18:59:41;6.47;;;4.07;;
16063;SDS011;8136;53.172;8.256;2023-09-07T19:02:10;4.47;;;4.03;;
16063;SDS011;8136;53.172;8.256;2023-09-07T19:04:40;6.67;;;4.03;;
16063;SDS011;8136;53.172;8.256;2023-09-07T19:07:07;6.73;;;4.17;;
16063;SDS011;8136;53.172;8.256;2023-09-07T19:09:35;3.53;;;3.17;;
16063;SDS011;8136;53.172;8.256;2023-09-07T19:12:01;4.77;;;3.70;;
16063;SDS011;8136;53.172;8.256;2023-09-07T19:14:31;5.63;;;4.20;;
16063;SDS011;8136;53.172;8.256;2023-09-07T19:16:59;5.67;;;3.20;;
16063;SDS011;8136;53.172;8.256;2023-09-07T19:19:27;6.03;;;3.97;;
16063;SDS011;8136;53.172;8.256;2023-09-07T19:21:54;4.10;;;3.53;;
16063;SDS011;8136;53.172;8.256;2023-09-07T19:24:22;4.13;;;3.73;;
16063;SDS011;8136;53.172;8.256;2023-09-07T19:26:50;5.10;;;3.70;;
16063;SDS011;8136;53.172;8.256;2023-09-07T19:29:21;3.77;;;3.40;;
16063;SDS011;8136;53.172;8.256;2023-09-07T19:31:51;4.43;;;3.70;;
16063;SDS011;8136;53.172;8.256;2023-09-07T19:34:19;5.80;;;3.83;;
16063;SDS011;8136;53.172;8.256;2023-09-07T19:36:50;6.07;;;3.97;;
16063;SDS011;8136;53.172;8.256;2023-09-07T19:39:17;5.20;;;3.67;;
16063;SDS011;8136;53.172;8.256;2023-09-07T19:41:44;4.90;;;3.67;;
16063;SDS011;8136;53.172;8.256;2023-09-07T19:44:14;5.27;;;3.50;;
16063;SDS011;8136;53.172;8.256;2023-09-07T19:46:43;4.77;;;3.77;;
16063;SDS011;8136;53.172;8.256;2023-09-07T19:49:10;4.13;;;3.27;;
16063;SDS011;8136;53.172;8.256;2023-09-07T19:51:39;3.77;;;3.30;;
16063;SDS011;8136;53.172;8.256;2023-09-07T19:54:08;4.77;;;3.63;;
16063;SDS011;8136;53.172;8.256;2023-09-07T19:56:35;4.10;;;3.70;;
16063;SDS011;8136;53.172;8.256;2023-09-07T19:59:03;4.40;;;3.83;;
16063;SDS011;8136;53.172;8.256;2023-09-07T20:01:34;5.43;;;3.83;;
16063;SDS011;8136;53.172;8.256;2023-09-07T20:04:18;6.97;;;4.00;;
16063;SDS011;8136;53.172;8.256;2023-09-07T20:06:47;4.77;;;3.90;;
16063;SDS011;8136;53.172;8.256;2023-09-07T20:09:17;4.57;;;3.73;;
16063;SDS011;8136;53.172;8.256;2023-09-07T20:11:49;5.50;;;4.10;;
16063;SDS011;8136;53.172;8.256;2023-09-07T20:14:18;6.10;;;3.93;;
16063;SDS011;8136;53.172;8.256;2023-09-07T20:16:54;6.67;;;4.00;;
16063;SDS011;8136;53.172;8.256;2023-09-07T20:19:21;6.00;;;4.10;;
16063;SDS011;8136;53.172;8.256;2023-09-07T20:21:51;5.23;;;4.40;;
16063;SDS011;8136;53.172;8.256;2023-09-07T20:24:19;4.80;;;4.20;;
16063;SDS011;8136;53.172;8.256;2023-09-07T20:26:49;4.37;;;3.97;;
16063;SDS011;8136;53.172;8.256;2023-09-07T20:29:16;4.97;;;3.70;;
16063;SDS011;8136;53.172;8.256;2023-09-07T20:31:44;4.50;;;3.70;;
16063;SDS011;8136;53.172;8.256;2023-09-07T20:34:11;9.50;;;4.67;;
16063;SDS011;8136;53.172;8.256;2023-09-07T20:36:38;5.93;;;3.70;;
16063;SDS011;8136;53.172;8.256;2023-09-07T20:39:05;6.90;;;4.50;;
16063;SDS011;8136;53.172;8.256;2023-09-07T20:41:39;4.17;;;3.63;;
16063;SDS011;8136;53.172;8.256;2023-09-07T20:44:07;7.73;;;4.90;;
16063;SDS011;8136;53.172;8.256;2023-09-07T20:46:37;5.60;;;3.93;;
16063;SDS011;8136;53.172;8.256;2023-09-07T20:49:04;5.40;;;4.03;;
16063;SDS011;8136;53.172;8.256;2023-09-07T20:51:31;6.47;;;3.93;;
16063;SDS011;8136;53.172;8.256;2023-09-07T20:53:59;4.30;;;3.83;;
16063;SDS011;8136;53.172;8.256;2023-09-07T20:56:45;7.83;;;3.83;;
16063;SDS011;8136;53.172;8.256;2023-09-07T20:59:14;4.60;;;3.60;;
16063;SDS011;8136;53.172;8.256;2023-09-07T21:01:42;5.67;;;3.83;;
16063;SDS011;8136;53.172;8.256;2023-09-07T21:04:11;4.67;;;3.83;;
16063;SDS011;8136;53.172;8.256;2023-09-07T21:06:39;3.90;;;3.47;;
16063;SDS011;8136;53.172;8.256;2023-09-07T21:09:08;4.00;;;3.60;;
16063;SDS011;8136;53.172;8.256;2023-09-07T21:11:35;8.90;;;3.90;;
16063;SDS011;8136;53.172;8.256;2023-09-07T21:14:04;4.83;;;3.60;;
16063;SDS011;8136;53.172;8.256;2023-09-07T21:21:25;5.17;;;3.87;;
16063;SDS011;8136;53.172;8.256;2023-09-07T21:24:12;4.63;;;3.87;;
16063;SDS011;8136;53.172;8.256;2023-09-07T21:26:39;4.53;;;3.40;;
16063;SDS011;8136;53.172;8.256;2023-09-07T21:29:09;4.50;;;3.57;;
16063;SDS011;8136;53.172;8.256;2023-09-07T21:31:45;5.03;;;4.27;;
16063;SDS011;8136;53.172;8.256;2023-09-07T21:34:21;5.87;;;4.23;;
16063;SDS011;8136;53.172;8.256;2023-09-07T21:36:51;5.83;;;3.67;;
16063;SDS011;8136;53.172;8.256;2023-09-07T21:39:18;4.23;;;3.63;;
16063;SDS011;8136;53.172;8.256;2023-09-07T21:41:59;5.43;;;3.90;;
16063;SDS011;8136;53.172;8.256;2023-09-07T21:44:28;5.50;;;4.17;;
16063;SDS011;8136;53.172;8.256;2023-09-07T21:47:11;5.53;;;3.83;;
16063;SDS011;8136;53.172;8.256;2023-09-07T21:49:39;5.83;;;3.83;;
16063;SDS011;8136;53.172;8.256;2023-09-07T21:52:11;6.20;;;4.10;;
16063;SDS011;8136;53.172;8.256;2023-09-07T21:54:38;4.43;;;3.80;;
16063;SDS011;8136;53.172;8.256;2023-09-07T21:57:06;5.87;;;3.93;;
16063;SDS011;8136;53.172;8.256;2023-09-07T21:59:35;5.70;;;3.80;;
16063;SDS011;8136;53.172;8.256;2023-09-07T22:02:02;4.77;;;3.77;;
16063;SDS011;8136;53.172;8.256;2023-09-07T22:04:30;4.70;;;3.77;;
16063;SDS011;8136;53.172;8.256;2023-09-07T22:07:00;4.40;;;3.67;;
16063;SDS011;8136;53.172;8.256;2023-09-07T22:09:27;7.43;;;3.40;;
16063;SDS011;8136;53.172;8.256;2023-09-07T22:11:58;4.60;;;3.80;;
16063;SDS011;8136;53.172;8.256;2023-09-07T22:14:27;5.87;;;4.23;;
16063;SDS011;8136;53.172;8.256;2023-09-07T22:17:03;4.60;;;3.73;;
16063;SDS011;8136;53.172;8.256;2023-09-07T22:19:30;3.87;;;3.53;;
16063;SDS011;8136;53.172;8.256;2023-09-07T22:21:58;4.23;;;3.80;;
16063;SDS011;8136;53.172;8.256;2023-09-07T22:24:25;4.83;;;3.70;;
16063;SDS011;8136;53.172;8.256;2023-09-07T22:26:54;4.77;;;3.80;;
16063;SDS011;8136;53.172;8.256;2023-09-07T22:29:21;4.47;;;4.07;;
16063;SDS011;8136;53.172;8.256;2023-09-07T22:31:48;4.57;;;3.83;;
16063;SDS011;8136;53.172;8.256;2023-09-07T22:34:16;6.43;;;4.10;;
16063;SDS011;8136;53.172;8.256;2023-09-07T22:36:44;5.00;;;4.00;;
16063;SDS011;8136;53.172;8.256;2023-09-07T22:39:11;7.77;;;4.23;;
16063;SDS011;8136;53.172;8.256;2023-09-07T22:41:39;5.73;;;4.20;;
16063;SDS011;8136;53.172;8.256;2023-09-07T22:44:06;4.70;;;3.73;;
16063;SDS011;8136;53.172;8.256;2023-09-07T22:46:34;5.47;;;4.33;;
16063;SDS011;8136;53.172;8.256;2023-09-07T22:49:01;5.03;;;3.93;;
16063;SDS011;8136;53.172;8.256;2023-09-07T22:51:31;4.50;;;4.10;;
16063;SDS011;8136;53.172;8.256;2023-09-07T22:53:57;4.27;;;3.87;;
16063;SDS011;8136;53.172;8.256;2023-09-07T22:56:26;5.17;;;4.10;;
16063;SDS011;8136;53.172;8.256;2023-09-07T22:58:53;4.97;;;4.47;;
16063;SDS011;8136;53.172;8.256;2023-09-07T23:01:21;4.20;;;3.80;;
16063;SDS011;8136;53.172;8.256;2023-09-07T23:03:49;5.83;;;4.10;;
16063;SDS011;8136;53.172;8.256;2023-09-07T23:06:16;8.37;;;4.53;;
16063;SDS011;8136;53.172;8.256;2023-09-07T23:08:48;5.60;;;4.07;;
16063;SDS011;8136;53.172;8.256;2023-09-07T23:11:16;6.40;;;3.63;;
16063;SDS011;8136;53.172;8.256;2023-09-07T23:13:43;6.47;;;3.93;;
16063;SDS011;8136;53.172;8.256;2023-09-07T23:16:10;5.07;;;3.63;;
16063;SDS011;8136;53.172;8.256;2023-09-07T23:18:37;7.27;;;3.90;;
16063;SDS011;8136;53.172;8.256;2023-09-07T23:21:05;4.53;;;3.90;;
16063;SDS011;8136;53.172;8.256;2023-09-07T23:23:32;4.07;;;3.57;;
16063;SDS011;8136;53.172;8.256;2023-09-07T23:26:03;5.23;;;4.03;;
16063;SDS011;8136;53.172;8.256;2023-09-07T23:28:31;5.03;;;4.17;;
16063;SDS011;8136;53.172;8.256;2023-09-07T23:30:59;5.17;;;4.30;;
16063;SDS011;8136;53.172;8.256;2023-09-07T23:33:27;6.33;;;4.50;;
16063;SDS011;8136;53.172;8.256;2023-09-07T23:35:54;5.13;;;4.23;;
16063;SDS011;8136;53.172;8.256;2023-09-07T23:38:21;5.63;;;3.93;;
16063;SDS011;8136;53.172;8.256;2023-09-07T23:40:49;5.53;;;4.43;;
16063;SDS011;8136;53.172;8.256;2023-09-07T23:43:18;5.33;;;4.50;;
16063;SDS011;8136;53.172;8.256;2023-09-07T23:45:45;5.40;;;4.27;;
16063;SDS011;8136;53.172;8.256;2023-09-07T23:48:13;5.83;;;4.50;;
16063;SDS011;8136;53.172;8.256;2023-09-07T23:50:40;5.77;;;4.20;;
16063;SDS011;8136;53.172;8.256;2023-09-07T23:53:07;5.10;;;4.23;;
16063;SDS011;8136;53.172;8.256;2023-09-07T23:55:34;5.03;;;4.40;;
16063;SDS011;8136;53.172;8.256;2023-09-07T23:58:01;4.53;;;4.07;;
